Time;durP1;ratioP1;P1;durP2;ratioP2;P2;SDS_P1;SDS_P2;PMS_P1;PMS_P2;Temp;Humidity;BMP_temperature;BMP_pressure;BME280_temperature;BME280_humidity;BME280_pressure;Samples;Min_cycle;Max_cycle;Signal;HPM_P1;HPM_P2
2022/10/18 00:02:02;;;;;;;3.17;2.10;;;;;;;5.11;75.39;98048.88;5035029;28;20107;-63
2022/10/18 00:04:29;;;;;;;2.90;2.03;;;;;;;5.11;76.94;98047.97;5035028;28;20393;-63
2022/10/18 00:06:56;;;;;;;3.22;2.13;;;;;;;5.05;77.09;98041.91;5034838;28;20056;-63
2022/10/18 00:09:23;;;;;;;2.30;1.92;;;;;;;5.04;78.49;98045.38;5034855;28;20045;-63
2022/10/18 00:11:52;;;;;;;4.35;2.22;;;;;;;5.04;78.73;98037.59;5034910;28;20041;-63
2022/10/18 00:14:19;;;;;;;3.40;2.25;;;;;;;5.05;77.88;98031.53;5034843;28;20080;-63
2022/10/18 00:16:46;;;;;;;2.33;1.88;;;;;;;5.08;76.21;98035.03;5034713;28;20045;-63
2022/10/18 00:19:14;;;;;;;3.72;2.20;;;;;;;5.05;76.26;98033.25;5034497;28;20049;-63
2022/10/18 00:21:41;;;;;;;5.13;2.60;;;;;;;4.97;78.45;98028.00;5034664;28;20068;-63
2022/10/18 00:24:08;;;;;;;2.47;2.28;;;;;;;4.99;77.82;98030.59;5034659;28;20046;-63
2022/10/18 00:26:35;;;;;;;2.47;2.05;;;;;;;5.01;76.01;98027.19;5034562;28;20060;-63
2022/10/18 00:29:06;;;;;;;4.75;1.75;;;;;;;5.00;75.51;98024.56;5034566;28;20549;-61
2022/10/18 00:31:35;;;;;;;4.30;1.88;;;;;;;5.00;75.21;98024.56;5034393;28;20507;-63
2022/10/18 00:34:04;;;;;;;2.00;1.60;;;;;;;4.98;75.22;98023.69;5034419;28;20053;-64
2022/10/18 00:36:33;;;;;;;2.53;1.98;;;;;;;4.92;75.39;98016.72;5034454;28;20053;-63
2022/10/18 00:39:00;;;;;;;4.88;2.38;;;;;;;4.88;74.92;98023.59;5034478;28;20068;-63
2022/10/18 00:41:31;;;;;;;2.15;1.90;;;;;;;4.83;75.28;98016.63;5034334;28;20041;-64
2022/10/18 00:43:59;;;;;;;3.10;2.47;;;;;;;4.81;75.27;98016.63;5034094;28;20450;-63
2022/10/18 00:46:30;;;;;;;3.67;2.10;;;;;;;4.79;74.54;98018.34;5034254;28;20045;-63
2022/10/18 00:49:01;;;;;;;3.65;1.90;;;;;;;4.74;74.76;98018.31;5034124;28;20049;-63
2022/10/18 00:51:34;;;;;;;3.05;2.15;;;;;;;4.72;75.02;98016.56;5034259;28;20050;-63
2022/10/18 00:54:01;;;;;;;2.70;2.20;;;;;;;4.69;74.93;98012.19;5033899;28;20054;-63
2022/10/18 00:56:29;;;;;;;3.20;2.10;;;;;;;4.63;75.85;98006.94;5034008;28;20506;-63
2022/10/18 00:58:57;;;;;;;1.95;1.75;;;;;;;4.59;75.92;98000.88;5034111;28;20045;-62
2022/10/18 01:01:24;;;;;;;2.42;2.22;;;;;;;4.55;75.84;98006.91;5034074;28;20480;-63
2022/10/18 01:03:53;;;;;;;2.70;2.22;;;;;;;4.55;75.87;98002.56;5033977;28;20054;-63
2022/10/18 01:06:20;;;;;;;1.88;1.60;;;;;;;4.54;75.39;98003.44;5033904;28;20049;-63
2022/10/18 01:09:03;;;;;;;2.13;1.80;;;;;;;4.49;76.80;97997.31;5033630;28;20049;-63
2022/10/18 01:11:43;;;;;;;6.65;2.35;;;;;;;4.47;77.59;97992.97;5033746;28;20045;-63
2022/10/18 01:14:22;;;;;;;4.55;2.30;;;;;;;4.47;78.33;97990.38;5033611;28;20095;-63
2022/10/18 01:16:56;;;;;;;2.55;1.85;;;;;;;4.48;77.25;97990.41;5033662;28;20665;-63
2022/10/18 01:19:59;;;;;;;2.63;2.20;;;;;;;4.43;76.91;97982.56;5033680;28;20100;-62
2022/10/18 01:22:31;;;;;;;4.05;2.22;;;;;;;4.43;76.85;97984.31;5033728;28;20406;-64
2022/10/18 01:25:06;;;;;;;2.70;2.00;;;;;;;4.43;77.00;97986.91;5033540;28;20046;-63
2022/10/18 01:27:55;;;;;;;2.33;2.10;;;;;;;4.43;75.44;97982.56;5033548;28;20041;-63
2022/10/18 01:30:40;;;;;;;4.40;2.38;;;;;;;4.35;75.43;97981.66;5032920;28;20136;-63
2022/10/18 01:33:19;;;;;;;2.50;2.15;;;;;;;4.29;76.86;97979.00;5032207;28;20072;-64
2022/10/18 01:35:52;;;;;;;3.05;1.90;;;;;;;4.26;76.22;97979.84;5033356;28;20076;-63
2022/10/18 01:38:21;;;;;;;2.70;1.70;;;;;;;4.26;76.35;97982.44;5033373;28;20045;-63
2022/10/18 01:40:51;;;;;;;6.70;2.42;;;;;;;4.14;76.78;97990.06;5033460;28;20053;-63
2022/10/18 01:43:22;;;;;;;2.70;2.03;;;;;;;4.03;77.27;97983.03;5033014;28;20136;-64
2022/10/18 01:45:50;;;;;;;;;;;;;;;4.02;77.12;97983.91;5033701;28;20499;-64
2022/10/18 01:48:18;;;;;;;2.75;2.22;;;;;;;3.95;77.46;97984.69;5033176;28;19924;-63
2022/10/18 01:50:45;;;;;;;3.15;2.30;;;;;;;3.92;77.83;97982.91;5033093;28;20057;-64
2022/10/18 01:53:26;;;;;;;2.22;1.95;;;;;;;3.89;77.89;97980.28;5033214;28;20446;-63
2022/10/18 01:56:16;;;;;;;2.22;1.77;;;;;;;3.94;77.24;97980.34;5033168;28;20076;-63
2022/10/18 01:58:57;;;;;;;2.22;1.95;;;;;;;3.87;77.60;97975.94;5033203;28;20057;-62
2022/10/18 02:01:33;;;;;;;2.85;1.95;;;;;;;3.90;77.09;97973.38;5033160;28;20060;-63
2022/10/18 02:04:11;;;;;;;2.22;2.03;;;;;;;3.85;77.02;97975.91;5033132;28;20041;-64
2022/10/18 02:06:45;;;;;;;3.03;2.00;;;;;;;3.88;78.03;97981.13;5032933;28;20049;-63
2022/10/18 02:09:18;;;;;;;3.33;1.95;;;;;;;3.89;77.49;97974.25;5033149;28;20132;-64
2022/10/18 02:11:48;;;;;;;2.17;1.98;;;;;;;3.93;76.65;97976.00;5033019;28;20049;-63
2022/10/18 02:14:20;;;;;;;2.47;1.70;;;;;;;3.95;76.51;97978.63;5032956;28;20081;-64
2022/10/18 02:16:52;;;;;;;2.35;2.05;;;;;;;3.92;77.16;97982.91;5033009;28;20076;-63
2022/10/18 02:19:25;;;;;;;4.45;2.17;;;;;;;3.92;76.74;97985.50;5033005;28;20541;-63
2022/10/18 02:21:55;;;;;;;2.33;2.10;;;;;;;3.93;76.41;97991.56;5032938;28;20041;-63
2022/10/18 02:24:24;;;;;;;2.88;2.10;;;;;;;3.89;76.40;97982.03;5032920;28;20050;-64
2022/10/18 02:26:52;;;;;;;1.87;1.73;;;;;;;3.86;76.92;97988.03;5032941;28;20120;-62
2022/10/18 02:29:19;;;;;;;2.42;2.03;;;;;;;3.83;76.74;97976.75;5032717;28;20278;-64
2022/10/18 02:31:49;;;;;;;3.30;1.95;;;;;;;3.85;76.82;97980.25;5032796;28;20049;-63
2022/10/18 02:34:20;;;;;;;2.50;2.30;;;;;;;3.81;76.25;97974.16;5032626;28;20045;-63
2022/10/18 02:36:51;;;;;;;2.15;1.88;;;;;;;3.78;75.62;97980.16;5032993;28;20057;-64
2022/10/18 02:39:21;;;;;;;2.25;1.70;;;;;;;3.75;76.11;97977.53;5032770;28;20073;-64
2022/10/18 02:41:48;;;;;;;2.70;2.23;;;;;;;3.72;77.01;97982.69;5032766;28;20427;-63
2022/10/18 02:44:15;;;;;;;6.55;2.03;;;;;;;3.67;78.51;97977.44;5035469;28;20057;-63
2022/10/18 02:46:43;;;;;;;3.38;2.15;;;;;;;3.64;78.91;97982.56;5036548;28;20046;-64
2022/10/18 02:49:11;;;;;;;4.22;2.08;;;;;;;3.62;79.35;97981.69;5036490;28;20125;-63
2022/10/18 02:51:38;;;;;;;2.63;2.40;;;;;;;3.65;77.86;97979.13;5036443;28;20407;-64
2022/10/18 02:54:07;;;;;;;2.28;2.08;;;;;;;3.62;78.16;97979.13;5036283;28;20459;-63
2022/10/18 02:56:34;;;;;;;4.97;2.35;;;;;;;3.62;79.79;97973.06;5036272;28;20511;-63
2022/10/18 02:59:03;;;;;;;3.63;2.08;;;;;;;3.69;79.55;97976.56;5036304;28;20479;-64
2022/10/18 03:01:31;;;;;;;2.70;2.45;;;;;;;3.72;78.89;97979.22;5036115;28;20052;-63
2022/10/18 03:03:58;;;;;;;2.30;2.10;;;;;;;3.69;78.75;97977.47;5036151;28;20154;-63
2022/10/18 03:06:27;;;;;;;2.50;1.92;;;;;;;3.71;79.78;97977.47;5036140;28;20495;-63
2022/10/18 03:08:54;;;;;;;2.50;2.22;;;;;;;3.77;79.12;97978.41;5036052;28;20049;-63
2022/10/18 03:11:21;;;;;;;3.03;2.28;;;;;;;3.78;78.41;97972.41;5036065;28;20499;-64
2022/10/18 03:13:49;;;;;;;2.22;2.00;;;;;;;3.82;78.20;97975.03;5035969;28;20056;-64
2022/10/18 03:16:17;;;;;;;3.97;2.42;;;;;;;3.81;77.69;97975.84;5035933;28;20054;-63
2022/10/18 03:18:44;;;;;;;2.17;1.98;;;;;;;3.83;77.14;97969.88;5035970;28;20136;-63
2022/10/18 03:21:11;;;;;;;3.28;1.83;;;;;;;3.83;76.85;97977.63;5036892;28;20053;-64
2022/10/18 03:23:41;;;;;;;2.17;1.70;;;;;;;3.81;76.37;97974.16;5036207;28;20049;-63
2022/10/18 03:26:08;;;;;;;2.30;1.88;;;;;;;3.78;76.18;97972.41;5035795;28;20132;-64
2022/10/18 03:28:35;;;;;;;1.80;1.70;;;;;;;3.79;76.27;97978.44;5035782;28;20054;-64
2022/10/18 03:31:02;;;;;;;4.05;1.83;;;;;;;3.77;76.02;97983.59;5035715;28;20111;-63
2022/10/18 03:33:30;;;;;;;2.58;1.85;;;;;;;3.77;75.92;97986.19;5035638;28;20049;-63
2022/10/18 03:35:57;;;;;;;4.07;2.28;;;;;;;3.79;75.72;97991.38;5035510;28;20129;-63
2022/10/18 03:38:24;;;;;;;3.40;2.08;;;;;;;3.77;75.81;97991.34;5035560;28;20052;-63
2022/10/18 03:40:53;;;;;;;3.03;1.98;;;;;;;3.77;75.94;97988.75;5035352;28;20045;-63
2022/10/18 03:43:20;;;;;;;2.45;1.77;;;;;;;3.74;75.34;97996.53;5035117;28;20503;-63
2022/10/18 03:45:48;;;;;;;2.47;2.03;;;;;;;3.70;75.59;97999.03;5035454;28;20076;-63
2022/10/18 03:48:15;;;;;;;3.05;2.20;;;;;;;3.61;75.29;98000.66;5035271;28;20107;-63
2022/10/18 03:50:43;;;;;;;3.38;2.22;;;;;;;3.57;75.49;98000.59;5035231;28;20049;-64
2022/10/18 03:53:10;;;;;;;2.70;1.80;;;;;;;3.53;75.59;97997.09;5034895;28;20049;-63
2022/10/18 03:55:38;;;;;;;2.85;1.92;;;;;;;3.49;76.19;97990.16;5034996;28;20053;-62
2022/10/18 03:58:06;;;;;;;2.50;2.30;;;;;;;3.52;76.98;97996.22;5035275;28;20053;-63
2022/10/18 04:00:34;;;;;;;2.00;1.80;;;;;;;3.48;76.95;97989.28;5035179;28;20123;-63
2022/10/18 04:03:01;;;;;;;2.20;1.90;;;;;;;3.45;77.28;97993.53;5035135;28;20493;-63
2022/10/18 04:05:29;;;;;;;4.55;2.47;;;;;;;3.42;77.02;97991.78;5035032;28;20050;-63
2022/10/18 04:07:57;;;;;;;2.60;1.70;;;;;;;3.43;76.73;97988.31;5035078;28;20041;-62
2022/10/18 04:10:24;;;;;;;2.38;2.17;;;;;;;3.41;76.72;97977.09;5034954;28;20046;-63
2022/10/18 04:12:51;;;;;;;2.53;2.10;;;;;;;3.37;78.47;97985.69;5035095;28;20045;-63
2022/10/18 04:15:20;;;;;;;3.63;1.90;;;;;;;3.34;78.78;97983.03;5034695;28;20053;-63
2022/10/18 04:17:47;;;;;;;2.08;1.90;;;;;;;3.37;78.87;97988.25;5034649;28;20049;-64
2022/10/18 04:20:14;;;;;;;2.83;2.33;;;;;;;3.36;78.74;97984.78;5034699;28;20050;-63
2022/10/18 04:22:41;;;;;;;3.08;2.38;;;;;;;3.39;79.04;97986.56;5034584;28;20483;-64
2022/10/18 04:25:09;;;;;;;3.92;2.40;;;;;;;3.43;78.79;97984.88;5034563;28;20519;-63
2022/10/18 04:27:36;;;;;;;2.45;2.25;;;;;;;3.45;78.51;97989.22;5034518;28;20072;-64
2022/10/18 04:30:04;;;;;;;2.70;1.77;;;;;;;3.48;78.05;97984.09;5034439;28;20060;-63
2022/10/18 04:32:34;;;;;;;2.42;2.03;;;;;;;3.46;77.25;97975.44;5034495;28;20414;-63
2022/10/18 04:35:01;;;;;;;1.70;1.60;;;;;;;3.48;77.51;97980.63;5034434;28;20099;-63
2022/10/18 04:37:28;;;;;;;2.47;2.10;;;;;;;3.49;77.37;97982.38;5034340;28;20045;-62
2022/10/18 04:39:55;;;;;;;2.80;2.13;;;;;;;3.50;78.08;97986.72;5034738;28;20045;-64
2022/10/18 04:42:23;;;;;;;3.15;2.22;;;;;;;3.54;77.91;97988.47;5034443;28;20060;-63
2022/10/18 04:44:50;;;;;;;3.35;2.50;;;;;;;3.58;77.90;97985.06;5033881;28;20045;-63
2022/10/18 04:47:17;;;;;;;2.65;2.17;;;;;;;3.58;78.04;97985.06;5034096;28;20049;-63
2022/10/18 04:49:46;;;;;;;7.03;2.10;;;;;;;3.60;78.35;97990.28;5034194;28;20553;-64
2022/10/18 04:52:13;;;;;;;3.90;2.22;;;;;;;3.63;78.96;97986.03;5034262;28;20042;-64
2022/10/18 04:54:41;;;;;;;2.95;2.15;;;;;;;3.68;79.00;97988.66;5034007;28;20141;-63
2022/10/18 04:57:08;;;;;;;3.80;2.08;;;;;;;3.76;78.72;97993.91;5034040;28;20056;-63
2022/10/18 04:59:36;;;;;;;4.75;2.70;;;;;;;3.79;78.48;97988.78;5034052;28;20045;-63
2022/10/18 05:02:04;;;;;;;5.20;2.78;;;;;;;3.87;78.12;97988.88;5033833;28;20050;-64
2022/10/18 05:04:31;;;;;;;6.47;2.60;;;;;;;3.96;78.54;97990.72;5033819;28;20069;-63
2022/10/18 05:07:01;;;;;;;2.28;2.00;;;;;;;4.01;77.90;97989.91;5033282;28;20049;-63
2022/10/18 05:09:28;;;;;;;3.72;2.78;;;;;;;4.06;77.82;97995.16;5033863;28;20053;-63
2022/10/18 05:11:56;;;;;;;5.95;2.55;;;;;;;4.10;78.31;97984.00;5033738;28;20060;-64
2022/10/18 05:14:23;;;;;;;6.30;2.70;;;;;;;4.17;78.49;97983.19;5033694;28;20060;-63
2022/10/18 05:16:50;;;;;;;3.13;2.33;;;;;;;4.54;79.82;97981.81;5033638;28;20076;-63
2022/10/18 05:19:17;;;;;;;3.90;2.75;;;;;;;5.72;77.51;97981.75;5033652;28;20050;-63
2022/10/18 05:21:44;;;;;;;5.60;2.10;;;;;;;7.20;70.51;97981.16;5033616;28;20110;-63
2022/10/18 05:24:13;;;;;;;2.30;2.10;;;;;;;8.63;65.70;97978.84;5033646;28;20054;-63
2022/10/18 05:26:40;;;;;;;2.03;1.55;;;;;;;10.16;60.70;97982.53;5033413;28;20460;-63
2022/10/18 05:29:08;;;;;;;2.85;1.75;;;;;;;11.40;56.36;97979.75;5033536;28;20487;-63
2022/10/18 05:31:35;;;;;;;3.03;1.92;;;;;;;12.34;52.94;97983.19;5033441;28;20053;-63
2022/10/18 05:34:02;;;;;;;4.63;1.73;;;;;;;13.38;50.71;97982.44;5033359;28;20462;-62
2022/10/18 05:36:29;;;;;;;7.03;1.90;;;;;;;14.36;45.88;97976.25;5033312;28;20136;-63
2022/10/18 05:38:56;;;;;;;2.83;1.67;;;;;;;15.10;44.84;97987.97;5033387;28;20127;-63
2022/10/18 05:41:25;;;;;;;3.78;1.80;;;;;;;15.78;44.20;97982.16;5033618;28;20049;-63
2022/10/18 05:43:52;;;;;;;3.13;1.73;;;;;;;16.49;42.43;97972.47;5032979;28;20054;-63
2022/10/18 05:46:19;;;;;;;6.05;2.00;;;;;;;17.03;40.79;97982.66;5033151;28;20103;-63
2022/10/18 05:48:50;;;;;;;2.00;1.52;;;;;;;17.68;40.41;97987.03;5033197;28;20060;-63
2022/10/18 05:51:18;;;;;;;2.80;1.50;;;;;;;18.16;39.55;97974.34;5033162;28;20073;-63
2022/10/18 05:53:45;;;;;;;1.50;1.33;;;;;;;18.76;37.99;97976.88;5033225;28;20088;-63
2022/10/18 05:56:13;;;;;;;2.17;1.88;;;;;;;19.30;37.36;97979.50;5033064;28;20049;-63
2022/10/18 05:58:42;;;;;;;2.33;1.30;;;;;;;19.76;36.76;97985.16;5033140;28;20051;-63
2022/10/18 06:01:10;;;;;;;2.20;1.60;;;;;;;20.42;36.28;97987.88;5033146;28;20464;-63
2022/10/18 06:03:37;;;;;;;2.08;1.38;;;;;;;21.39;34.26;97979.78;5033099;28;20045;-63
2022/10/18 06:06:08;;;;;;;2.30;1.73;;;;;;;21.98;33.13;97981.59;5033014;28;20049;-63
2022/10/18 06:08:35;;;;;;;2.35;1.63;;;;;;;22.42;32.89;97985.06;5032974;28;20454;-63
2022/10/18 06:11:07;;;;;;;2.20;1.17;;;;;;;22.74;33.02;97980.44;5033144;28;20045;-63
2022/10/18 06:13:34;;;;;;;2.05;1.63;;;;;;;22.98;32.62;97983.31;5032981;28;20546;-63
2022/10/18 06:16:02;;;;;;;1.40;1.23;;;;;;;23.37;32.01;97978.13;5032972;28;20136;-63
2022/10/18 06:18:29;;;;;;;1.27;1.17;;;;;;;24.03;31.15;97987.00;5036715;28;20094;-63
2022/10/18 06:20:58;;;;;;;1.52;1.42;;;;;;;24.52;30.75;97989.81;5037134;28;20041;-63
2022/10/18 06:23:25;;;;;;;3.60;1.52;;;;;;;25.05;30.19;97986.88;5037002;28;20071;-63
2022/10/18 06:25:52;;;;;;;1.40;1.25;;;;;;;25.69;29.53;97992.81;5036817;28;20468;-63
2022/10/18 06:28:19;;;;;;;3.30;1.40;;;;;;;26.46;28.08;97994.91;5036692;28;20092;-60
2022/10/18 06:30:46;;;;;;;1.30;1.15;;;;;;;26.85;27.80;97994.47;5036690;28;20057;-63
2022/10/18 06:33:15;;;;;;;2.78;1.50;;;;;;;27.31;27.41;97984.44;5036739;28;20050;-63
2022/10/18 06:35:42;;;;;;;1.65;1.40;;;;;;;27.94;26.66;97984.56;5036643;28;20107;-63
2022/10/18 06:38:09;;;;;;;2.47;1.55;;;;;;;28.58;26.03;97987.94;5036653;28;20080;-63
2022/10/18 06:40:36;;;;;;;2.75;1.50;;;;;;;29.23;25.11;97980.38;5036619;28;20491;-63
2022/10/18 06:43:06;;;;;;;2.20;1.70;;;;;;;29.37;25.20;97979.06;5036466;28;20124;-61
2022/10/18 06:45:33;;;;;;;2.43;1.20;;;;;;;29.71;25.07;97975.91;5036407;28;20458;-61
2022/10/18 06:48:00;;;;;;;2.22;1.52;;;;;;;29.98;24.57;97974.25;5036443;28;20141;-60
2022/10/18 06:50:29;;;;;;;2.03;1.73;;;;;;;30.04;24.80;97977.38;5036467;28;20053;-61
2022/10/18 06:52:56;;;;;;;2.53;1.83;;;;;;;30.36;24.54;97976.97;5036382;28;20107;-61
2022/10/18 06:55:23;;;;;;;3.08;1.60;;;;;;;30.64;24.24;97973.44;5036143;28;20064;-60
2022/10/18 06:57:50;;;;;;;1.90;1.75;;;;;;;31.11;24.10;97969.69;5036439;28;20049;-61
2022/10/18 07:00:17;;;;;;;1.70;1.60;;;;;;;31.34;23.73;97965.66;5036093;28;20096;-60
2022/10/18 07:02:44;;;;;;;16.75;15.27;;;;;;;31.62;23.25;97962.81;5036297;28;20046;-61
2022/10/18 07:05:11;;;;;;;2.38;1.70;;;;;;;31.72;23.20;97962.75;5036234;28;20063;-61
2022/10/18 07:07:40;;;;;;;2.45;1.42;;;;;;;31.73;23.29;97964.44;5036099;28;20084;-61
2022/10/18 07:10:08;;;;;;;2.45;1.30;;;;;;;31.93;23.28;97965.06;5036085;28;20057;-61
2022/10/18 07:12:36;;;;;;;8.50;7.80;;;;;;;32.01;22.38;97969.69;5035979;28;20129;-61
2022/10/18 07:15:03;;;;;;;2.90;1.77;;;;;;;31.89;23.25;97959.13;5035983;28;20045;-61
2022/10/18 07:17:30;;;;;;;4.10;1.70;;;;;;;31.86;23.08;97963.97;5035832;28;20456;-61
2022/10/18 07:19:58;;;;;;;2.38;1.90;;;;;;;31.91;23.05;97964.38;5035921;28;20535;-61
2022/10/18 07:22:25;;;;;;;2.88;1.70;;;;;;;31.56;23.28;97961.63;5035774;28;20107;-61
2022/10/18 07:24:54;;;;;;;6.03;2.10;;;;;;;31.36;23.53;97952.88;5035879;28;20111;-61
2022/10/18 07:27:21;;;;;;;1.95;1.80;;;;;;;30.63;24.19;97950.97;5035742;28;20045;-61
2022/10/18 07:29:48;;;;;;;4.03;1.92;;;;;;;30.17;24.94;97948.25;5034900;28;20050;-61
2022/10/18 07:32:16;;;;;;;2.08;1.88;;;;;;;29.89;25.37;97951.72;5035641;28;20128;-61
2022/10/18 07:34:43;;;;;;;2.95;1.85;;;;;;;28.71;26.81;97949.16;5035601;28;20503;-61
2022/10/18 07:37:11;;;;;;;2.90;1.65;;;;;;;28.13;27.58;97948.81;5035469;28;20510;-61
2022/10/18 07:39:38;;;;;;;3.00;2.15;;;;;;;27.73;28.51;97934.38;5035371;28;20107;-64
2022/10/18 07:42:07;;;;;;;2.90;2.03;;;;;;;27.21;28.91;97938.69;5035441;28;20485;-62
2022/10/18 07:44:34;;;;;;;3.00;1.80;;;;;;;26.62;29.77;97933.69;5035202;28;20053;-63
2022/10/18 07:47:02;;;;;;;4.70;1.88;;;;;;;26.19;30.83;97932.63;5035405;28;20050;-63
2022/10/18 07:49:29;;;;;;;2.15;1.83;;;;;;;25.77;30.92;97929.72;5035217;28;20045;-63
2022/10/18 07:51:56;;;;;;;2.08;1.70;;;;;;;25.13;31.88;97927.38;5035353;28;20080;-63
2022/10/18 07:54:23;;;;;;;2.38;1.80;;;;;;;24.56;32.99;97924.47;5035266;28;20045;-63
2022/10/18 07:56:50;;;;;;;4.05;2.03;;;;;;;24.16;33.29;97926.38;5035009;28;20512;-63
2022/10/18 07:59:19;;;;;;;4.72;1.70;;;;;;;23.83;34.32;97922.47;5035086;28;20084;-63
2022/10/18 08:01:46;;;;;;;2.55;2.00;;;;;;;23.52;34.40;97924.63;5035081;28;20041;-63
2022/10/18 08:04:13;;;;;;;6.88;2.00;;;;;;;23.36;34.98;97917.66;5035166;28;20068;-63
2022/10/18 08:06:40;;;;;;;1.92;1.67;;;;;;;23.19;34.64;97917.00;5035138;28;20049;-63
2022/10/18 08:09:07;;;;;;;1.85;1.52;;;;;;;23.04;34.71;97910.00;5035005;28;20049;-63
2022/10/18 08:11:35;;;;;;;3.35;1.80;;;;;;;22.41;35.51;97910.53;5034920;28;20140;-63
2022/10/18 08:14:02;;;;;;;2.10;1.90;;;;;;;22.11;34.61;97900.91;5034831;28;20049;-63
2022/10/18 08:16:31;;;;;;;2.08;1.95;;;;;;;21.88;35.68;97896.06;5034734;28;20107;-63
2022/10/18 08:18:58;;;;;;;3.05;1.65;;;;;;;21.55;36.12;97897.22;5034732;28;20419;-64
2022/10/18 08:21:26;;;;;;;1.65;1.55;;;;;;;21.59;36.30;97894.25;5034666;28;20488;-63
2022/10/18 08:23:53;;;;;;;1.80;1.45;;;;;;;21.43;35.16;97888.19;5034783;28;20053;-63
2022/10/18 08:26:22;;;;;;;2.00;1.77;;;;;;;21.17;34.85;97896.78;5034524;28;20085;-63
2022/10/18 08:28:50;;;;;;;2.17;1.90;;;;;;;20.75;35.67;97890.38;5034456;28;20053;-63
2022/10/18 08:31:19;;;;;;;2.45;1.58;;;;;;;20.63;36.02;97879.50;5034473;28;20053;-63
2022/10/18 08:33:47;;;;;;;2.00;1.77;;;;;;;20.50;35.50;97883.81;5034472;28;20507;-63
2022/10/18 08:36:16;;;;;;;1.70;1.60;;;;;;;20.46;35.92;97875.16;5034320;28;20411;-62
2022/10/18 08:38:44;;;;;;;1.75;1.55;;;;;;;20.39;35.64;97885.28;5034816;28;20076;-64
2022/10/18 08:41:43;;;;;;;1.92;1.70;;;;;;;20.41;36.31;97872.75;5034447;28;20487;-63
2022/10/18 08:44:17;;;;;;;1.58;1.40;;;;;;;20.36;35.71;97868.66;5030698;28;20129;-62
2022/10/18 08:46:46;;;;;;;5.03;1.58;;;;;;;20.15;37.56;97868.94;5034218;28;20045;-63
2022/10/18 08:49:25;;;;;;;1.50;1.30;;;;;;;20.46;35.84;97872.50;5034203;28;20096;-63
2022/10/18 08:51:53;;;;;;;2.40;1.42;;;;;;;20.41;34.86;97866.59;5034121;28;20493;-63
2022/10/18 08:54:27;;;;;;;1.50;1.27;;;;;;;20.25;34.79;97862.16;5034163;28;20049;-63
2022/10/18 08:57:00;;;;;;;1.25;1.15;;;;;;;20.32;33.36;97860.03;5033999;28;20411;-63
2022/10/18 08:59:32;;;;;;;2.40;1.30;;;;;;;20.26;35.00;97852.41;5034022;28;20052;-63
2022/10/18 09:02:11;;;;;;;2.42;1.10;;;;;;;20.26;35.05;97842.59;5033997;28;20056;-63
2022/10/18 09:04:49;;;;;;;3.28;1.50;;;;;;;20.40;35.47;97843.63;5033962;28;20509;-63
2022/10/18 09:07:41;;;;;;;2.65;1.65;;;;;;;20.41;35.80;97845.34;5033809;28;20541;-63
2022/10/18 09:10:19;;;;;;;1.88;1.10;;;;;;;20.49;35.77;97840.44;5013207;28;20046;-63
2022/10/18 09:13:05;;;;;;;2.47;1.15;;;;;;;20.67;34.97;97832.31;5033766;28;20049;-63
2022/10/18 09:15:42;;;;;;;1.42;1.20;;;;;;;20.76;32.55;97834.44;5033639;28;20056;-63
2022/10/18 09:18:24;;;;;;;4.65;1.70;;;;;;;20.91;33.26;97830.06;5033652;28;20461;-63
2022/10/18 09:20:58;;;;;;;8.27;1.60;;;;;;;20.80;32.39;97819.19;5033730;28;20045;-64
2022/10/18 09:23:39;;;;;;;2.60;1.35;;;;;;;20.89;30.78;97820.44;5033653;28;20049;-63
2022/10/18 09:26:14;;;;;;;0.73;0.73;;;;;;;20.89;31.27;97815.94;5033490;28;20050;-63
2022/10/18 09:28:56;;;;;;;1.30;1.20;;;;;;;20.96;29.34;97808.50;5033581;28;20071;-63
2022/10/18 09:31:31;;;;;;;1.73;1.40;;;;;;;20.95;28.46;97810.28;5033541;28;20056;-63
2022/10/18 09:34:02;;;;;;;1.42;1.10;;;;;;;20.82;27.24;97812.81;5033432;28;20160;-63
2022/10/18 09:36:35;;;;;;;1.70;1.23;;;;;;;20.27;25.79;97807.16;5033360;28;20053;-63
2022/10/18 09:39:09;;;;;;;1.45;1.17;;;;;;;20.03;26.98;97799.66;5033305;28;20073;-63
2022/10/18 09:41:42;;;;;;;0.98;0.95;;;;;;;20.05;27.76;97795.09;5033295;28;20128;-63
2022/10/18 09:44:15;;;;;;;1.20;1.10;;;;;;;19.98;28.00;97799.00;5033005;28;20111;-62
2022/10/18 09:46:49;;;;;;;1.88;0.98;;;;;;;19.91;27.44;97795.00;5033402;28;20434;-62
2022/10/18 09:49:20;;;;;;;0.82;0.82;;;;;;;19.97;25.44;97793.78;5033376;28;20045;-63
2022/10/18 09:51:51;;;;;;;2.75;1.38;;;;;;;19.70;28.77;97781.97;5032949;28;20050;-62
2022/10/18 09:54:29;;;;;;;2.95;1.35;;;;;;;19.32;26.04;97786.66;5033255;28;20045;-62
2022/10/18 09:57:03;;;;;;;1.10;1.00;;;;;;;19.02;24.81;97779.38;5033393;28;20439;-63
2022/10/18 09:59:36;;;;;;;1.35;0.82;;;;;;;19.05;26.08;97776.56;5033344;28;20087;-62
2022/10/18 10:02:03;;;;;;;1.08;0.88;;;;;;;19.04;25.71;97771.31;5033301;28;20076;-62
2022/10/18 10:04:30;;;;;;;1.00;0.98;;;;;;;19.00;26.60;97765.34;5033359;28;20140;-63
2022/10/18 10:07:01;;;;;;;1.40;1.13;;;;;;;19.06;25.28;97759.69;5033201;28;20041;-63
2022/10/18 10:09:31;;;;;;;1.30;1.05;;;;;;;19.14;24.23;97751.38;5033098;28;20060;-62
2022/10/18 10:11:58;;;;;;;1.10;1.00;;;;;;;19.14;22.70;97742.56;5033074;28;20081;-63
2022/10/18 10:14:29;;;;;;;0.93;0.85;;;;;;;19.21;21.34;97733.34;5033120;28;20041;-62
2022/10/18 10:16:58;;;;;;;1.30;1.05;;;;;;;19.33;19.71;97729.16;5033051;28;20049;-63
2022/10/18 10:19:29;;;;;;;1.33;0.80;;;;;;;19.34;21.73;97720.25;5033235;28;20052;-63
2022/10/18 10:22:05;;;;;;;1.13;0.63;;;;;;;19.35;21.24;97715.81;5033078;28;20076;-63
2022/10/18 10:24:44;;;;;;;2.00;0.90;;;;;;;19.41;21.97;97710.16;5032878;28;20053;-62
2022/10/18 10:27:19;;;;;;;0.60;0.60;;;;;;;19.67;22.71;97708.69;5032988;28;20085;-63
2022/10/18 10:29:56;;;;;;;1.30;0.90;;;;;;;19.65;21.79;97694.66;5033008;28;20073;-62
2022/10/18 10:32:25;;;;;;;0.70;0.70;;;;;;;19.48;22.74;97697.41;5032726;28;20096;-64
2022/10/18 10:34:53;;;;;;;1.80;1.20;;;;;;;19.44;23.45;97694.94;5032812;28;20060;-63
2022/10/18 10:37:31;;;;;;;0.80;0.80;;;;;;;19.56;24.79;97689.84;5033200;28;20188;-63
2022/10/18 10:40:09;;;;;;;1.50;1.00;;;;;;;19.76;24.14;97683.44;5032848;28;20072;-63
2022/10/18 10:42:39;;;;;;;1.45;1.10;;;;;;;19.94;23.55;97680.66;5032883;28;20513;-63
2022/10/18 10:45:12;;;;;;;1.13;0.70;;;;;;;20.06;22.62;97687.06;5032523;28;20120;-62
2022/10/18 10:47:40;;;;;;;1.50;1.13;;;;;;;20.17;22.92;97673.16;5032840;28;20095;-63
2022/10/18 10:50:12;;;;;;;7.18;1.00;;;;;;;20.21;22.09;97666.72;5032718;28;20049;-63
2022/10/18 10:52:42;;;;;;;1.40;0.93;;;;;;;20.35;21.67;97657.94;5032650;28;20045;-63
2022/10/18 10:55:18;;;;;;;1.25;1.02;;;;;;;20.39;21.36;97663.91;5032823;28;20081;-63
2022/10/18 10:57:47;;;;;;;0.82;0.80;;;;;;;20.37;21.95;97653.38;5032616;28;20057;-62
2022/10/18 11:00:36;;;;;;;1.23;1.08;;;;;;;20.20;22.02;97649.09;5032868;28;20109;-63
2022/10/18 11:03:06;;;;;;;1.10;0.80;;;;;;;20.17;22.12;97644.78;5032776;28;20042;-63
2022/10/18 11:05:43;;;;;;;1.02;0.93;;;;;;;20.28;22.47;97648.59;5036159;28;20119;-63
2022/10/18 11:08:15;;;;;;;1.02;0.80;;;;;;;20.24;22.47;97632.00;5036081;28;20059;-63
2022/10/18 11:10:54;;;;;;;1.60;1.10;;;;;;;20.26;22.59;97629.25;5036133;28;20119;-63
2022/10/18 11:13:28;;;;;;;1.33;1.15;;;;;;;20.26;22.87;97629.25;5036136;28;20041;-62
2022/10/18 11:16:01;;;;;;;1.13;0.80;;;;;;;20.25;22.17;97619.56;5036110;28;20483;-62
2022/10/18 11:18:32;;;;;;;2.42;1.10;;;;;;;20.32;24.30;97613.78;5035920;28;20049;-63
2022/10/18 11:21:06;;;;;;;1.75;1.30;;;;;;;20.43;26.79;97609.63;5036251;28;20046;-63
2022/10/18 11:23:37;;;;;;;1.42;1.20;;;;;;;20.41;29.88;97614.19;5035947;28;20077;-63
2022/10/18 11:26:28;;;;;;;2.97;1.13;;;;;;;20.47;30.11;97591.69;5035872;28;20056;-63
2022/10/18 11:29:27;;;;;;;1.17;1.08;;;;;;;20.45;27.03;97597.97;5035892;28;20446;-63
2022/10/18 11:32:06;;;;;;;2.95;1.40;;;;;;;20.43;27.57;97588.34;5035812;28;20053;-63
2022/10/18 11:34:56;;;;;;;2.40;1.27;;;;;;;20.48;30.00;97580.97;5035739;28;20041;-63
2022/10/18 11:37:38;;;;;;;2.05;1.50;;;;;;;20.51;30.94;97579.91;5035605;28;20049;-63
2022/10/18 11:40:26;;;;;;;1.95;1.10;;;;;;;20.58;29.17;97575.94;5035467;28;20077;-63
2022/10/18 11:43:02;;;;;;;4.47;1.02;;;;;;;20.67;29.08;97569.19;5035444;28;20045;-63
2022/10/18 11:45:37;;;;;;;3.63;1.20;;;;;;;20.62;30.70;97571.28;5035239;28;20104;-64
2022/10/18 11:48:18;;;;;;;1.23;0.93;;;;;;;20.47;30.83;97566.00;5035468;28;20049;-63
2022/10/18 11:50:52;;;;;;;1.90;1.40;;;;;;;20.41;29.67;97561.88;5035335;28;20046;-63
2022/10/18 11:53:25;;;;;;;2.22;1.33;;;;;;;20.39;30.68;97560.28;5035342;28;20099;-63